Virton, Belgium
Current Conditions -  °F | °C
As of 8:20 PM on Thursday 23 Oct 2014 (Local Time) from ELLX Reporting Station
Broken Clouds Broken Clouds  
Wind Chill: 48°   Ceiling: 800
Heat Index: 48°   Visibility: 6mi
Dew Point: 46°   Wind: 2mph
Humidity: 93%   Direction: NA
Pressure: 30.21"   Gusts: NA
Location:  49.57°N, 5.53°E
Report Text: ELLX 231820Z VRB02KT 9999 BKN008 09/08 Q1023 NOSIG
Loading
Personal Weather Stations






























Interactive Weather Map
Tropical Storm Tracking
New forecast layout! Learn more

10-Day Weather Forecast

Advertisements
Track Severe Weather on mobile